Hlavní strana
METAR-TAF:

METAR-TAF

Letiště :

Mezinárodní letiště Káhira

Káhira, Egypt

zeměpisná šířka: 30-08N, zeměpisná délka: 031-24E, výška: 64 m

Aktuální stav počasí

Zpráva byla vytvořena před 33 minutami, v 04:00 UTC
Východoseverovýchodní vítr 6 kt
Teplota 16°C
Vlhkost vzduchu 77%
Tlak 1021 hPa
Viditelnost 10 km a více
Skoro jasno ve výšce 2500 ft

METAR: HECA 170400Z 07006KT 9999 FEW025 16/12 Q1021 NOSIG

Čas: 06:33 (04:33 UTC)

Předpověď počasí

Zpráva byla vytvořena před 5 hodinami a 33 minutami, v 23:00 UTC
Předpověď platná od 17 v 00 UTC do 18 v 06 UTC
Severoseverovýchodní vítr 6 kt
Viditelnost 10 km a více
Polojasno ve výšce 2500 ft
Dočasný
od 17 v 00 UTC do 17 v 06 UTC
vítr z různých směrů 3 kt
Viditelnost: 4000 m
zákal

TAF: HECA 162300Z 1700/1806 02006KT 9999 SCT025 TEMPO 1700/1706 VRB03KT 4000 HZ NSC

Stav a předpovědi počasí z více než 4 000 letišť (zprávy METAR a TAF).

Červené a žluté tečky na mapě představují dostupné meteorologické stanice.

Když kurzor umístíte na tečku, zobrazí se název stanice.

Pak kliknutím zobrazíte stav a předpověď počasí.

Chcete-li změnit mapu, kliknutím na zelené tlačítko se znaménkem +mapu přiblížíte, kliknutím na zelené tlačítko se znaménkem – mapu oddálíte a kliknutím na zelené šipky přejdete na sousední mapy.


METAR-TAF: